Time;durP1;ratioP1;P1;durP2;ratioP2;P2;SDS_P1;SDS_P2;PMS_P1;PMS_P2;Temp;Humidity;BMP_temperature;BMP_pressure;BME280_temperature;BME280_humidity;BME280_pressure;Samples;Min_cycle;Max_cycle;Signal;HPM_P1;HPM_P2
2022/04/09 00:01:36;;;;;;;26.50;6.65;;;;;;;1.36;100.00;100306.97;5055320;28;20025;-65
2022/04/09 00:04:01;;;;;;;24.95;6.38;;;;;;;1.35;100.00;100306.06;5063487;28;20017;-65
2022/04/09 00:06:26;;;;;;;23.77;6.43;;;;;;;1.29;100.00;100305.00;5060645;28;20569;-64
2022/04/09 00:08:52;;;;;;;26.58;7.03;;;;;;;1.27;100.00;100315.38;5061569;28;20418;-67
2022/04/09 00:11:17;;;;;;;25.88;6.53;;;;;;;1.23;100.00;100320.44;5059354;28;20025;-67
2022/04/09 00:13:42;;;;;;;26.98;6.82;;;;;;;1.19;100.00;100327.25;5060075;28;20456;-64
2022/04/09 00:16:08;;;;;;;29.98;6.75;;;;;;;1.18;100.00;100336.78;5058851;28;20025;-65
2022/04/09 00:18:33;;;;;;;25.83;6.70;;;;;;;1.24;100.00;100335.19;5057979;28;20077;-64
2022/04/09 00:20:58;;;;;;;26.63;6.50;;;;;;;1.23;100.00;100334.31;5059957;28;20402;-65
2022/04/09 00:23:24;;;;;;;25.95;6.90;;;;;;;1.23;100.00;100344.75;5055684;28;20021;-64
2022/04/09 00:25:50;;;;;;;26.77;6.70;;;;;;;1.21;100.00;100349.03;5060030;28;20033;-64
2022/04/09 00:28:15;;;;;;;27.75;7.10;;;;;;;1.16;100.00;100361.00;5055032;28;20111;-65
2022/04/09 00:30:40;;;;;;;26.00;6.93;;;;;;;1.11;100.00;100359.97;5058719;28;20029;-65
2022/04/09 00:33:06;;;;;;;28.40;6.85;;;;;;;1.10;100.00;100360.78;5054673;28;20054;-66
2022/04/09 00:35:31;;;;;;;26.02;6.45;;;;;;;1.06;100.00;100358.91;5056182;28;20104;-65
2022/04/09 00:37:57;;;;;;;27.30;7.03;;;;;;;1.04;100.00;100362.31;5054733;28;20166;-65
2022/04/09 00:40:24;;;;;;;28.70;6.90;;;;;;;1.03;100.00;100370.09;5056690;28;20112;-65
2022/04/09 00:42:49;;;;;;;26.65;7.00;;;;;;;1.01;100.00;100372.63;5057375;28;20021;-65
2022/04/09 00:45:15;;;;;;;28.58;7.00;;;;;;;1.01;100.00;100366.56;5033301;28;20111;-64
2022/04/09 00:47:40;;;;;;;25.95;6.85;;;;;;;1.02;100.00;100378.72;5056216;28;20103;-65
2022/04/09 00:50:08;;;;;;;26.77;6.93;;;;;;;1.03;100.00;100380.50;5063000;28;20055;-65
2022/04/09 00:52:38;;;;;;;28.20;7.18;;;;;;;1.04;100.00;100392.69;5060572;28;20025;-68
2022/04/09 00:55:04;;;;;;;28.40;7.20;;;;;;;1.12;100.00;100390.34;5061118;28;20032;-69
2022/04/09 00:57:34;;;;;;;29.10;6.65;;;;;;;1.15;100.00;100395.66;5063890;28;20104;-64
2022/04/09 01:00:09;;;;;;;26.83;6.80;;;;;;;1.18;100.00;100398.38;5056196;28;20496;-66
2022/04/09 01:02:37;;;;;;;29.35;6.25;;;;;;;1.35;100.00;100396.38;5059002;28;20048;-68
2022/04/09 01:05:02;;;;;;;26.85;6.07;;;;;;;1.49;100.00;100407.28;5062656;28;20107;-65
2022/04/09 01:07:29;;;;;;;27.75;6.05;;;;;;;1.54;100.00;100410.91;5059688;28;20108;-66
2022/04/09 01:09:55;;;;;;;27.42;5.72;;;;;;;1.50;100.00;100416.84;5059415;28;20020;-64
2022/04/09 01:12:21;;;;;;;27.85;5.75;;;;;;;1.43;100.00;100417.47;5060715;28;20507;-64
2022/04/09 01:14:47;;;;;;;28.13;5.82;;;;;;;1.31;100.00;100431.84;5059911;28;20026;-64
2022/04/09 01:17:12;;;;;;;28.65;6.22;;;;;;;1.24;100.00;100432.47;5055500;28;20032;-64
2022/04/09 01:19:37;;;;;;;28.58;6.60;;;;;;;1.14;100.00;100430.38;5060342;28;20471;-64
2022/04/09 01:22:03;;;;;;;26.17;6.18;;;;;;;1.07;100.00;100439.66;5059973;28;20072;-64
2022/04/09 01:24:28;;;;;;;28.45;6.70;;;;;;;1.04;100.00;100445.63;5059196;28;20120;-65
2022/04/09 01:26:54;;;;;;;29.73;6.90;;;;;;;0.99;100.00;100452.41;5055288;28;20056;-65
2022/04/09 01:29:19;;;;;;;26.88;6.18;;;;;;;0.95;100.00;100458.31;5058807;28;20471;-65
2022/04/09 01:31:45;;;;;;;26.67;6.13;;;;;;;0.92;100.00;100455.63;5060826;28;20543;-65
2022/04/09 01:34:13;;;;;;;24.27;6.03;;;;;;;0.91;100.00;100463.38;5061298;28;20033;-65
2022/04/09 01:36:39;;;;;;;27.55;6.10;;;;;;;0.87;100.00;100467.56;5062028;28;20445;-65
2022/04/09 01:39:04;;;;;;;28.17;6.18;;;;;;;0.86;100.00;100461.47;5058127;28;20056;-69
2022/04/09 01:41:30;;;;;;;25.88;6.05;;;;;;;0.89;100.00;100465.91;5062696;28;20025;-64
2022/04/09 01:43:55;;;;;;;27.25;5.97;;;;;;;0.85;100.00;100469.22;5057948;28;20108;-65
2022/04/09 01:46:20;;;;;;;28.05;5.93;;;;;;;0.85;100.00;100479.63;5052883;28;20471;-66
2022/04/09 01:48:45;;;;;;;27.63;6.15;;;;;;;0.84;100.00;100481.31;5059088;28;20178;-64
2022/04/09 01:51:11;;;;;;;29.05;6.13;;;;;;;0.83;100.00;100487.38;5055812;28;20045;-65
2022/04/09 01:53:38;;;;;;;28.10;6.55;;;;;;;0.90;100.00;100492.81;5059179;28;20025;-65
2022/04/09 01:56:04;;;;;;;28.65;6.20;;;;;;;0.94;100.00;100495.59;5063619;28;20017;-64
2022/04/09 01:58:30;;;;;;;30.02;6.30;;;;;;;0.94;100.00;100499.91;5060029;28;20029;-64
2022/04/09 02:00:58;;;;;;;26.08;5.95;;;;;;;0.93;100.00;100504.22;5059887;28;20097;-65
2022/04/09 02:03:25;;;;;;;25.48;5.95;;;;;;;0.97;100.00;100508.72;5057051;28;20029;-65
2022/04/09 02:05:50;;;;;;;27.20;5.80;;;;;;;0.95;100.00;100506.91;5055411;28;20078;-65
2022/04/09 02:08:16;;;;;;;28.08;6.20;;;;;;;0.96;100.00;100506.97;5056421;28;20064;-65
2022/04/09 02:10:41;;;;;;;27.60;5.63;;;;;;;1.01;100.00;100513.22;5056902;28;20052;-65
2022/04/09 02:13:13;;;;;;;26.95;6.10;;;;;;;1.02;100.00;100521.91;5059124;28;20053;-65
2022/04/09 02:15:39;;;;;;;31.25;6.15;;;;;;;1.04;100.00;100523.75;5062829;28;20386;-65
2022/04/09 02:18:05;;;;;;;28.98;5.78;;;;;;;1.12;100.00;100530.94;5052782;28;20024;-65
2022/04/09 02:20:30;;;;;;;29.58;5.97;;;;;;;1.13;100.00;100527.53;5061112;28;20029;-65
2022/04/09 02:22:56;;;;;;;28.02;6.18;;;;;;;1.13;100.00;100532.72;5060188;28;20087;-69
2022/04/09 02:25:21;;;;;;;27.73;5.93;;;;;;;1.12;100.00;100539.69;5059079;28;20025;-65
2022/04/09 02:27:47;;;;;;;29.25;6.07;;;;;;;1.10;100.00;100543.91;5057016;28;20430;-72
2022/04/09 02:30:13;;;;;;;26.90;6.18;;;;;;;1.13;100.00;100545.75;5059032;28;20029;-68
2022/04/09 02:32:46;;;;;;;26.58;5.22;;;;;;;1.21;100.00;100555.63;5059352;28;20048;-67
2022/04/09 02:35:12;;;;;;;26.00;5.90;;;;;;;1.17;100.00;100548.53;5065400;28;20025;-66
2022/04/09 02:37:38;;;;;;;27.92;5.75;;;;;;;1.13;100.00;100553.56;5062691;28;20028;-66
2022/04/09 02:40:04;;;;;;;26.02;5.72;;;;;;;1.12;100.00;100562.19;5041255;28;20597;-68
2022/04/09 02:42:29;;;;;;;25.95;5.80;;;;;;;1.10;100.00;100564.75;5055320;28;20020;-65
2022/04/09 02:44:55;;;;;;;26.60;5.80;;;;;;;1.13;100.00;100563.97;5053507;28;20025;-66
2022/04/09 02:47:21;;;;;;;25.98;5.13;;;;;;;1.48;100.00;100574.84;5054283;28;20025;-65
2022/04/09 02:49:46;;;;;;;25.92;5.50;;;;;;;1.66;100.00;100578.13;5056127;28;20379;-66
2022/04/09 02:52:12;;;;;;;25.95;4.80;;;;;;;1.64;100.00;100576.28;5055164;28;20040;-70
2022/04/09 02:54:37;;;;;;;25.30;4.93;;;;;;;1.81;100.00;100576.91;5061514;28;20032;-65
2022/04/09 02:57:03;;;;;;;22.42;4.50;;;;;;;1.80;100.00;100581.19;5057967;28;20032;-68
2022/04/09 02:59:28;;;;;;;21.35;4.10;;;;;;;1.88;100.00;100594.53;5033527;28;20053;-64
2022/04/09 03:01:53;;;;;;;23.52;4.38;;;;;;;1.87;100.00;100593.63;5050091;28;20033;-65
2022/04/09 03:04:19;;;;;;;24.08;4.50;;;;;;;1.85;100.00;100605.72;5061362;28;20104;-67
2022/04/09 03:06:45;;;;;;;21.13;4.28;;;;;;;1.89;100.00;100601.50;5060115;28;20033;-68
2022/04/09 03:09:10;;;;;;;26.25;5.10;;;;;;;1.92;100.00;100609.44;5056909;28;20031;-68
2022/04/09 03:11:35;;;;;;;24.20;4.47;;;;;;;1.82;100.00;100615.16;5057908;28;20052;-64
2022/04/09 03:14:01;;;;;;;25.60;4.53;;;;;;;1.67;100.00;100605.94;5053726;28;20021;-67
2022/04/09 03:16:26;;;;;;;26.20;4.97;;;;;;;1.52;100.00;100613.22;5050316;28;20463;-65
2022/04/09 03:18:51;;;;;;;22.65;4.72;;;;;;;1.41;100.00;100615.38;5055858;28;20087;-64
2022/04/09 03:21:17;;;;;;;22.05;4.80;;;;;;;1.26;100.00;100618.31;5055318;28;20112;-64
2022/04/09 03:23:42;;;;;;;22.83;4.88;;;;;;;1.14;100.00;100615.25;5059864;28;20047;-72
2022/04/09 03:26:07;;;;;;;24.45;4.97;;;;;;;1.11;100.00;100628.16;5061181;28;20028;-66
2022/04/09 03:28:33;;;;;;;24.60;5.00;;;;;;;1.07;100.00;100628.84;5057755;28;20053;-67
2022/04/09 03:30:59;;;;;;;25.75;5.57;;;;;;;1.02;100.00;100639.06;5063160;28;20112;-64
2022/04/09 03:33:25;;;;;;;24.80;4.82;;;;;;;0.97;100.00;100636.28;5052140;28;20142;-65
2022/04/09 03:35:50;;;;;;;21.63;4.85;;;;;;;0.90;100.00;100639.44;5056188;28;20024;-69
2022/04/09 03:38:16;;;;;;;27.48;5.13;;;;;;;0.86;100.00;100646.28;5056829;28;20400;-65
2022/04/09 03:40:42;;;;;;;22.20;4.88;;;;;;;0.83;100.00;100643.53;5060950;28;20071;-64
2022/04/09 03:43:07;;;;;;;23.83;4.80;;;;;;;0.89;100.00;100648.13;5058588;28;20104;-64
2022/04/09 03:45:32;;;;;;;25.35;4.78;;;;;;;0.89;100.00;100653.31;5058275;28;20021;-64
2022/04/09 03:47:58;;;;;;;23.77;4.57;;;;;;;0.92;100.00;100648.22;5058917;28;20037;-69
2022/04/09 03:50:23;;;;;;;24.15;4.75;;;;;;;0.93;100.00;100651.72;5052680;28;20491;-64
2022/04/09 03:52:49;;;;;;;24.75;4.90;;;;;;;0.93;100.00;100655.19;5057752;28;20104;-70
2022/04/09 03:55:15;;;;;;;25.30;5.55;;;;;;;0.91;100.00;100656.84;5040872;28;20024;-70
2022/04/09 03:57:40;;;;;;;23.83;5.28;;;;;;;0.85;100.00;100654.88;5058089;28;20025;-69
2022/04/09 04:00:08;;;;;;;24.05;5.18;;;;;;;0.83;100.00;100658.25;5056822;28;20107;-70
2022/04/09 04:02:33;;;;;;;22.98;4.85;;;;;;;0.88;100.00;100661.94;5059093;28;20086;-70
2022/04/09 04:05:02;;;;;;;25.00;5.03;;;;;;;0.83;100.00;100676.47;5053261;28;20025;-71
2022/04/09 04:07:29;;;;;;;23.75;5.20;;;;;;;0.76;100.00;100672.75;5068980;28;20036;-67
2022/04/09 04:09:54;;;;;;;24.13;5.65;;;;;;;0.70;100.00;100677.72;5083679;28;20033;-70
2022/04/09 04:12:19;;;;;;;25.73;6.22;;;;;;;0.62;100.00;100681.69;5079961;28;20020;-70
2022/04/09 04:14:45;;;;;;;24.73;5.60;;;;;;;0.58;100.00;100683.25;5083420;28;20028;-68
2022/04/09 04:17:10;;;;;;;26.63;5.65;;;;;;;0.62;100.00;100689.50;5076603;28;20026;-70
2022/04/09 04:19:36;;;;;;;26.02;6.00;;;;;;;0.61;100.00;100698.13;5080988;28;20044;-69
2022/04/09 04:22:02;;;;;;;27.20;5.68;;;;;;;0.60;100.00;100705.03;5079624;28;20024;-70
2022/04/09 04:24:27;;;;;;;24.38;5.32;;;;;;;0.59;100.00;100708.47;5076228;28;20036;-71
2022/04/09 04:26:53;;;;;;;25.75;5.25;;;;;;;0.63;100.00;100712.09;5069881;28;20024;-70
2022/04/09 04:29:18;;;;;;;23.92;5.35;;;;;;;0.67;100.00;100708.78;5060975;28;20082;-71
2022/04/09 04:31:43;;;;;;;27.45;5.75;;;;;;;0.71;100.00;100713.28;5062106;28;20379;-70
2022/04/09 04:34:09;;;;;;;26.00;5.35;;;;;;;0.67;100.00;100713.97;5065222;28;20478;-70
2022/04/09 04:36:34;;;;;;;26.05;5.28;;;;;;;0.68;100.00;100721.88;5064297;28;20020;-70
2022/04/09 04:38:59;;;;;;;25.30;5.80;;;;;;;0.66;100.00;100726.09;5082177;28;20095;-70
2022/04/09 04:41:25;;;;;;;27.23;6.18;;;;;;;0.66;100.00;100723.50;5077940;28;20049;-70
2022/04/09 04:43:52;;;;;;;25.23;5.30;;;;;;;0.65;100.00;100721.72;5075124;28;20025;-66
2022/04/09 04:46:18;;;;;;;26.00;5.88;;;;;;;0.66;100.00;100723.50;5082497;28;20021;-71
2022/04/09 04:48:45;;;;;;;24.05;5.85;;;;;;;0.66;100.00;100728.72;5076939;28;20096;-71
2022/04/09 04:51:11;;;;;;;25.98;5.97;;;;;;;0.65;100.00;100736.44;5084556;28;20039;-68
2022/04/09 04:53:36;;;;;;;25.85;5.75;;;;;;;0.67;100.00;100740.91;5082674;28;20033;-68
2022/04/09 04:56:02;;;;;;;26.13;5.90;;;;;;;0.72;100.00;100753.22;5086094;28;20029;-68
2022/04/09 04:58:27;;;;;;;24.83;5.45;;;;;;;0.72;100.00;100748.03;5084329;28;20036;-67
2022/04/09 05:00:52;;;;;;;27.77;6.10;;;;;;;0.76;100.00;100747.31;5083091;28;20051;-71
2022/04/09 05:03:18;;;;;;;27.25;5.72;;;;;;;0.74;100.00;100743.75;5084981;28;20027;-69
2022/04/09 05:05:43;;;;;;;24.92;5.82;;;;;;;0.73;100.00;100758.50;5083292;28;20019;-71
2022/04/09 05:08:09;;;;;;;24.17;5.38;;;;;;;0.72;100.00;100761.03;5075076;28;20470;-65
2022/04/09 05:10:34;;;;;;;24.52;5.53;;;;;;;0.81;100.00;100764.91;5076457;28;20017;-65
2022/04/09 05:13:00;;;;;;;24.45;5.45;;;;;;;0.90;100.00;100767.00;5084511;28;20048;-64
2022/04/09 05:15:25;;;;;;;26.77;5.75;;;;;;;0.93;100.00;100769.72;5081651;28;20040;-66
2022/04/09 05:17:51;;;;;;;25.23;5.60;;;;;;;0.94;100.00;100779.31;5079470;28;20024;-69
2022/04/09 05:20:16;;;;;;;25.70;5.32;;;;;;;0.96;100.00;100789.81;5073486;28;20037;-65
2022/04/09 05:22:46;;;;;;;26.35;5.80;;;;;;;0.97;100.00;100794.19;5064401;28;20025;-64
2022/04/09 05:25:13;;;;;;;24.80;6.00;;;;;;;1.00;100.00;100791.72;5061437;28;20028;-65
2022/04/09 05:27:40;;;;;;;24.55;5.65;;;;;;;1.00;100.00;100800.41;5055463;28;20029;-67
2022/04/09 05:30:06;;;;;;;24.60;5.93;;;;;;;1.03;100.00;100799.66;5059120;28;20138;-65
2022/04/09 05:32:31;;;;;;;25.02;5.75;;;;;;;1.07;100.00;100811.09;5054256;28;20415;-64
2022/04/09 05:34:57;;;;;;;26.92;5.78;;;;;;;1.08;100.00;100807.66;5062289;28;20032;-66
2022/04/09 05:37:22;;;;;;;26.25;6.22;;;;;;;1.07;100.00;100816.31;5059193;28;20076;-65
2022/04/09 05:39:47;;;;;;;22.85;5.90;;;;;;;1.08;100.00;100825.88;5060455;28;20039;-65
2022/04/09 05:42:13;;;;;;;27.13;6.97;;;;;;;1.13;100.00;100824.38;5058228;28;20021;-65
2022/04/09 05:44:39;;;;;;;23.80;5.72;;;;;;;1.18;100.00;100826.34;5061128;28;20033;-64
2022/04/09 05:47:05;;;;;;;26.88;5.93;;;;;;;1.27;100.00;100831.06;5054756;28;20060;-65
2022/04/09 05:49:30;;;;;;;26.50;5.80;;;;;;;1.35;100.00;100833.97;5061063;28;20029;-67
2022/04/09 05:51:57;;;;;;;26.20;6.53;;;;;;;1.44;100.00;100846.50;5063259;28;20029;-66
2022/04/09 05:54:22;;;;;;;25.52;5.90;;;;;;;1.58;100.00;100850.56;5055484;28;20029;-65
2022/04/09 05:56:47;;;;;;;25.65;5.88;;;;;;;1.77;100.00;100846.09;5058118;28;20074;-66
2022/04/09 05:59:13;;;;;;;25.70;5.65;;;;;;;1.88;100.00;100848.31;5052543;28;20036;-70
2022/04/09 06:01:39;;;;;;;24.52;5.75;;;;;;;1.99;100.00;100856.53;5059291;28;20082;-69
2022/04/09 06:04:06;;;;;;;26.52;5.55;;;;;;;2.07;100.00;100856.84;5059162;28;20052;-70
2022/04/09 06:06:31;;;;;;;26.00;5.68;;;;;;;2.18;100.00;100860.75;5054729;28;20102;-70
2022/04/09 06:08:56;;;;;;;25.02;5.68;;;;;;;2.28;100.00;100866.34;5057920;28;20076;-71
2022/04/09 06:11:22;;;;;;;26.00;5.47;;;;;;;2.39;100.00;100875.47;5063290;28;20031;-70
2022/04/09 06:13:47;;;;;;;26.20;5.53;;;;;;;2.46;100.00;100871.34;5061061;28;20043;-70
2022/04/09 06:16:12;;;;;;;24.50;5.43;;;;;;;2.55;100.00;100879.50;5056855;28;20426;-71
2022/04/09 06:18:38;;;;;;;24.23;5.18;;;;;;;2.59;100.00;100884.03;5057586;28;20065;-65
2022/04/09 06:21:04;;;;;;;25.08;5.63;;;;;;;2.66;100.00;100886.03;5053844;28;20025;-64
2022/04/09 06:23:30;;;;;;;25.13;5.50;;;;;;;2.72;100.00;100885.38;5034029;28;20075;-64
2022/04/09 06:25:56;;;;;;;26.00;5.63;;;;;;;2.82;100.00;100899.66;5055092;28;20037;-64
2022/04/09 06:28:21;;;;;;;23.90;5.28;;;;;;;2.92;100.00;100900.03;5051927;28;20108;-64
2022/04/09 06:30:47;;;;;;;26.10;5.80;;;;;;;3.02;100.00;100903.88;5060930;28;20120;-65
2022/04/09 06:33:12;;;;;;;23.50;5.60;;;;;;;3.09;100.00;100911.09;5059361;28;20581;-64
2022/04/09 06:35:37;;;;;;;22.45;5.28;;;;;;;3.27;100.00;100910.84;5058351;28;20013;-64
2022/04/09 06:38:03;;;;;;;26.67;5.65;;;;;;;3.39;100.00;100909.53;5058113;28;20382;-64
2022/04/09 06:40:28;;;;;;;24.90;5.38;;;;;;;3.42;100.00;100913.16;5060003;28;20021;-64
2022/04/09 06:42:54;;;;;;;22.60;5.30;;;;;;;3.53;100.00;100910.00;5056254;28;20025;-71
2022/04/09 06:45:19;;;;;;;23.75;5.40;;;;;;;3.67;100.00;100914.84;5059811;28;20021;-68
2022/04/09 06:47:47;;;;;;;23.88;5.03;;;;;;;3.92;100.00;100926.13;5059240;28;20021;-69
2022/04/09 06:50:13;;;;;;;23.05;4.95;;;;;;;4.09;100.00;100924.06;5060606;28;20032;-65
2022/04/09 06:52:40;;;;;;;26.90;5.47;;;;;;;4.29;100.00;100923.78;5058813;28;20108;-64
2022/04/09 06:55:06;;;;;;;23.27;4.82;;;;;;;4.36;100.00;100929.25;5062010;28;20426;-64
2022/04/09 06:57:32;;;;;;;22.02;4.50;;;;;;;4.36;100.00;100928.38;5059554;28;20031;-65
2022/04/09 07:00:02;;;;;;;23.08;5.05;;;;;;;4.36;100.00;100931.00;5058127;28;20051;-64
2022/04/09 07:02:28;;;;;;;21.95;4.30;;;;;;;4.37;100.00;100932.78;5057508;28;20037;-64
2022/04/09 07:04:53;;;;;;;23.15;5.07;;;;;;;4.36;100.00;100946.72;5052231;28;20017;-67
2022/04/09 07:07:24;;;;;;;24.35;5.63;;;;;;;4.35;100.00;100944.91;5056223;28;20028;-64
2022/04/09 07:09:50;;;;;;;26.10;5.57;;;;;;;4.31;100.00;100951.81;5055862;28;20066;-68
2022/04/09 07:12:16;;;;;;;27.77;5.80;;;;;;;4.30;100.00;100949.13;5053704;28;20104;-64
2022/04/09 07:14:41;;;;;;;24.05;4.93;;;;;;;4.27;100.00;100956.91;5052838;28;20017;-66
2022/04/09 07:17:07;;;;;;;23.13;4.70;;;;;;;4.18;100.00;100968.84;5054876;28;20032;-64
2022/04/09 07:19:33;;;;;;;22.17;5.03;;;;;;;4.12;100.00;100976.50;5056798;28;20483;-69
2022/04/09 07:21:59;;;;;;;24.88;4.93;;;;;;;4.07;100.00;100978.06;5057137;28;20027;-65
2022/04/09 07:24:24;;;;;;;25.23;5.20;;;;;;;4.11;100.00;100985.19;5055273;28;20472;-68
2022/04/09 07:26:50;;;;;;;22.67;4.90;;;;;;;3.99;100.00;100980.44;5057963;28;20021;-64
2022/04/09 07:29:16;;;;;;;24.73;5.10;;;;;;;4.01;100.00;100988.31;5062194;28;20274;-68
2022/04/09 07:31:41;;;;;;;25.88;5.00;;;;;;;4.00;100.00;100983.91;5070253;28;20486;-66
2022/04/09 07:34:06;;;;;;;23.30;4.95;;;;;;;4.11;100.00;100984.28;5061387;28;20041;-64
2022/04/09 07:36:32;;;;;;;25.40;5.22;;;;;;;4.23;100.00;100989.03;5064637;28;20029;-64
2022/04/09 07:38:57;;;;;;;23.73;5.43;;;;;;;4.33;100.00;100988.50;5058217;28;20029;-68
2022/04/09 07:41:22;;;;;;;24.50;5.45;;;;;;;4.50;100.00;100995.16;5059204;28;20032;-65
2022/04/09 07:43:48;;;;;;;21.83;5.20;;;;;;;4.59;100.00;100980.56;5058420;28;20021;-65
2022/04/09 07:46:13;;;;;;;23.90;5.32;;;;;;;4.72;100.00;100986.22;5058153;28;20021;-67
2022/04/09 07:48:38;;;;;;;23.15;5.03;;;;;;;4.80;100.00;100988.19;5052220;28;20530;-66
2022/04/09 07:51:04;;;;;;;24.27;5.82;;;;;;;4.97;100.00;100994.81;5057019;28;20029;-64
2022/04/09 07:53:29;;;;;;;24.83;5.28;;;;;;;5.10;100.00;100993.44;5054090;28;20075;-64
2022/04/09 07:55:54;;;;;;;22.05;4.93;;;;;;;5.39;100.00;100996.03;5057894;28;20025;-69
2022/04/09 07:58:20;;;;;;;23.45;5.20;;;;;;;5.69;100.00;101002.94;5055377;28;20025;-64
2022/04/09 08:00:45;;;;;;;22.88;5.38;;;;;;;6.04;100.00;101003.00;5054742;28;20063;-66
2022/04/09 08:03:12;;;;;;;24.13;4.95;;;;;;;6.30;100.00;101000.16;5058260;28;20064;-65
2022/04/09 08:05:37;;;;;;;21.98;4.75;;;;;;;6.37;100.00;100997.69;5054954;28;20044;-65
2022/04/09 08:08:04;;;;;;;21.70;4.63;;;;;;;6.57;100.00;100997.28;5051629;28;20061;-64
2022/04/09 08:10:30;;;;;;;24.38;5.05;;;;;;;6.80;100.00;101005.66;5061925;28;20033;-65
2022/04/09 08:12:56;;;;;;;21.88;4.80;;;;;;;7.00;100.00;101000.84;5058952;28;20024;-68
2022/04/09 08:15:23;;;;;;;22.35;4.65;;;;;;;7.18;100.00;100995.13;5030116;28;20037;-64
2022/04/09 08:17:49;;;;;;;22.83;4.90;;;;;;;7.49;100.00;100995.72;5036137;28;20158;-65
2022/04/09 08:20:18;;;;;;;21.45;4.13;;;;;;;7.71;100.00;100997.00;5053325;28;20071;-64
2022/04/09 08:22:44;;;;;;;20.23;4.07;;;;;;;7.66;100.00;101017.97;5056451;28;20021;-65
2022/04/09 08:25:09;;;;;;;18.88;3.88;;;;;;;7.72;100.00;100998.78;5051382;28;20040;-64
2022/04/09 08:27:35;;;;;;;20.80;4.00;;;;;;;7.52;100.00;101002.81;5057543;28;20024;-64
2022/04/09 08:30:01;;;;;;;22.45;4.10;;;;;;;7.78;100.00;101024.34;5053907;28;20030;-64
2022/04/09 08:32:28;;;;;;;19.40;3.67;;;;;;;7.62;100.00;101024.03;5050952;28;20028;-64
2022/04/09 08:34:54;;;;;;;19.30;3.92;;;;;;;7.77;100.00;101006.78;5052765;28;20052;-64
2022/04/09 08:37:21;;;;;;;15.32;3.22;;;;;;;7.64;92.49;101027.56;5047494;28;20063;-64
2022/04/09 08:39:46;;;;;;;17.15;3.30;;;;;;;7.52;99.22;101021.22;5058074;28;20120;-65
2022/04/09 08:42:12;;;;;;;18.90;3.50;;;;;;;7.71;100.00;101047.00;5057849;28;20502;-64
2022/04/09 08:44:37;;;;;;;17.70;3.60;;;;;;;7.96;99.89;101050.09;5059147;28;20042;-64
2022/04/09 08:47:04;;;;;;;19.50;3.50;;;;;;;8.10;96.42;101039.84;5059267;28;20095;-64
2022/04/09 08:49:36;;;;;;;12.73;2.80;;;;;;;8.07;86.12;101042.38;5053146;28;20055;-64
2022/04/09 08:52:02;;;;;;;12.93;2.88;;;;;;;8.49;84.71;101059.81;5056982;28;20029;-65
2022/04/09 08:54:29;;;;;;;16.15;3.25;;;;;;;8.84;83.25;101048.94;5058711;28;20529;-64
2022/04/09 08:56:54;;;;;;;15.82;2.80;;;;;;;8.71;84.05;101064.59;5057466;28;20048;-64
2022/04/09 08:59:20;;;;;;;15.45;2.90;;;;;;;8.30;82.95;101054.22;5055340;28;20472;-64
2022/04/09 09:01:45;;;;;;;14.30;2.90;;;;;;;7.96;85.34;101056.25;5051666;28;20037;-64
2022/04/09 09:04:10;;;;;;;16.45;2.92;;;;;;;7.84;87.63;101061.28;5057014;28;20536;-63
2022/04/09 09:06:40;;;;;;;16.38;3.10;;;;;;;7.53;90.12;101057.16;5058397;28;20071;-64
2022/04/09 09:09:06;;;;;;;20.50;3.88;;;;;;;7.44;92.97;101064.03;5058652;28;20100;-64
2022/04/09 09:11:46;;;;;;;14.15;2.90;;;;;;;7.40;87.37;101090.25;5063446;28;20025;-68
2022/04/09 09:14:24;;;;;;;15.77;2.83;;;;;;;8.30;85.99;101066.50;5060235;28;20364;-70
2022/04/09 09:16:50;;;;;;;14.18;2.80;;;;;;;9.20;82.70;101074.97;5060145;28;20025;-70
2022/04/09 09:19:15;;;;;;;14.63;2.75;;;;;;;9.70;75.46;101092.31;5058847;28;20035;-70
2022/04/09 09:21:51;;;;;;;16.48;3.20;;;;;;;9.65;75.93;101094.00;5060837;28;20028;-71
2022/04/09 09:24:17;;;;;;;11.43;2.50;;;;;;;9.92;77.94;101105.75;5059631;28;20060;-70
2022/04/09 09:26:44;;;;;;;11.80;2.30;;;;;;;9.48;80.37;101100.81;5059973;28;20055;-68
2022/04/09 09:29:12;;;;;;;12.10;3.22;;;;;;;8.93;83.77;101108.81;5057264;28;20029;-70
2022/04/09 09:31:45;;;;;;;10.63;2.58;;;;;;;8.71;85.90;101101.47;5059937;28;20048;-70
2022/04/09 09:34:15;;;;;;;11.60;2.38;;;;;;;8.38;87.51;101101.78;5057095;28;20040;-71
2022/04/09 09:36:43;;;;;;;9.35;2.40;;;;;;;8.36;85.41;101098.22;5041042;28;20392;-70
2022/04/09 09:39:10;;;;;;;9.95;2.42;;;;;;;8.34;87.02;101098.22;5060499;28;20536;-70
2022/04/09 09:41:48;;;;;;;12.07;2.22;;;;;;;8.32;88.03;101099.91;5061204;28;20025;-70
2022/04/09 09:44:15;;;;;;;10.80;2.40;;;;;;;8.28;86.83;101103.34;5057381;28;20036;-70
2022/04/09 09:46:40;;;;;;;12.52;2.53;;;;;;;8.38;87.10;101099.13;5060611;28;20029;-70
2022/04/09 09:49:06;;;;;;;12.45;2.50;;;;;;;9.51;82.39;101095.56;5055962;28;20391;-70
2022/04/09 09:51:31;;;;;;;12.35;2.60;;;;;;;10.55;74.72;101095.81;5062276;28;20357;-70
2022/04/09 09:54:08;;;;;;;13.55;2.50;;;;;;;12.19;76.40;101094.94;5058407;28;20087;-69
2022/04/09 09:56:41;;;;;;;12.27;2.80;;;;;;;11.71;71.68;101093.88;5058440;28;20029;-70
2022/04/09 09:59:08;;;;;;;16.27;3.05;;;;;;;11.82;63.76;101089.53;5057819;28;20039;-70
2022/04/09 10:01:42;;;;;;;13.95;2.72;;;;;;;12.90;53.68;101097.59;5057308;28;20542;-70
2022/04/09 10:04:11;;;;;;;13.30;2.50;;;;;;;13.47;43.44;101096.63;5062051;28;20025;-70
2022/04/09 10:06:39;;;;;;;14.52;2.50;;;;;;;13.60;37.73;101095.69;5058759;28;20414;-71
2022/04/09 10:09:06;;;;;;;11.63;2.58;;;;;;;12.52;40.12;101109.13;5055720;28;20050;-70
2022/04/09 10:11:42;;;;;;;14.30;2.60;;;;;;;12.24;41.92;101100.22;5056742;28;20036;-70
2022/04/09 10:14:10;;;;;;;14.20;2.50;;;;;;;11.85;41.91;101080.69;5056027;28;20032;-68
2022/04/09 10:16:36;;;;;;;10.63;2.35;;;;;;;11.73;41.61;101105.38;5038649;28;20029;-70
2022/04/09 10:19:05;;;;;;;12.00;2.65;;;;;;;10.68;42.22;101112.69;5058419;28;20039;-69
2022/04/09 10:21:34;;;;;;;11.88;2.28;;;;;;;9.95;44.91;101116.34;5061710;28;20032;-69
2022/04/09 10:24:04;;;;;;;10.77;2.40;;;;;;;10.26;42.57;101109.63;5054876;28;20104;-66
2022/04/09 10:26:30;;;;;;;9.80;2.20;;;;;;;10.25;41.85;101105.22;5054957;28;20037;-71
2022/04/09 10:29:07;;;;;;;11.60;2.35;;;;;;;10.72;42.17;101116.25;5052670;28;20075;-69
2022/04/09 10:31:34;;;;;;;12.02;2.47;;;;;;;10.25;41.34;101117.53;5055868;28;20111;-70
2022/04/09 10:34:01;;;;;;;11.70;2.40;;;;;;;10.12;41.07;101109.50;5058864;28;20017;-68
2022/04/09 10:36:45;;;;;;;11.55;2.30;;;;;;;11.67;40.19;101111.50;5058206;28;20025;-67
2022/04/09 10:39:22;;;;;;;11.27;2.50;;;;;;;12.32;39.47;101118.78;5058398;28;20033;-69
2022/04/09 10:41:48;;;;;;;9.50;2.55;;;;;;;13.49;34.69;101132.00;5054284;28;20357;-70
2022/04/09 10:44:34;;;;;;;7.88;2.35;;;;;;;13.77;33.72;101113.31;5052323;28;20031;-69
2022/04/09 10:47:01;;;;;;;10.18;2.20;;;;;;;13.15;33.51;101134.72;5057156;28;20037;-69
2022/04/09 10:49:28;;;;;;;12.95;2.40;;;;;;;13.37;33.11;101110.81;5056264;28;20063;-70
2022/04/09 10:52:02;;;;;;;10.70;2.28;;;;;;;13.83;33.72;101117.72;5061024;28;20029;-70
2022/04/09 10:54:27;;;;;;;13.13;3.10;;;;;;;14.92;32.78;101113.44;5053315;28;20490;-71
2022/04/09 10:56:52;;;;;;;13.00;2.45;;;;;;;16.30;30.57;101126.91;5058747;28;20056;-71
2022/04/09 10:59:18;;;;;;;8.20;2.20;;;;;;;16.13;28.53;101135.13;5060564;28;20108;-70
2022/04/09 11:01:46;;;;;;;8.20;2.03;;;;;;;15.64;30.83;101122.41;5060955;28;20080;-67
2022/04/09 11:04:27;;;;;;;10.15;2.42;;;;;;;16.37;31.90;101117.91;5058976;28;20037;-68
2022/04/09 11:07:18;;;;;;;13.32;2.97;;;;;;;17.52;30.39;101103.44;5053788;28;20043;-70
2022/04/09 11:09:58;;;;;;;8.65;1.98;;;;;;;16.92;29.18;101119.72;5055063;28;20035;-69
2022/04/09 11:12:39;;;;;;;12.68;2.30;;;;;;;17.74;28.46;101117.22;5059522;28;20060;-70
2022/04/09 11:15:12;;;;;;;9.35;2.20;;;;;;;17.83;29.12;101104.59;5049920;28;20032;-70
2022/04/09 11:17:38;;;;;;;12.45;2.10;;;;;;;17.87;28.86;101106.28;5048334;28;20021;-71